createdAt,value
2022-09-30T00:01:40.438Z,1.97
2022-09-30T00:04:10.823Z,1.63
2022-09-30T00:06:38.561Z,1.83
2022-09-30T00:09:06.800Z,2.22
2022-09-30T00:11:36.144Z,1.90
2022-09-30T00:14:04.025Z,1.97
2022-09-30T00:16:34.000Z,1.80
2022-09-30T00:19:05.528Z,2.05
2022-09-30T00:21:34.446Z,1.55
2022-09-30T00:24:03.185Z,1.70
2022-09-30T00:26:31.133Z,2.00
2022-09-30T00:29:00.349Z,2.00
2022-09-30T00:31:32.127Z,1.98
2022-09-30T00:34:09.733Z,1.83
2022-09-30T00:36:43.502Z,2.20
2022-09-30T00:39:14.670Z,1.80
2022-09-30T00:41:43.117Z,2.03
2022-09-30T00:44:50.772Z,2.00
2022-09-30T00:47:43.481Z,1.80
2022-09-30T00:50:20.987Z,1.83
2022-09-30T00:52:55.488Z,1.90
2022-09-30T00:55:32.495Z,2.10
2022-09-30T00:58:02.749Z,1.73
2022-09-30T01:00:30.976Z,1.60
2022-09-30T01:02:59.012Z,1.80
2022-09-30T01:05:27.402Z,2.07
2022-09-30T01:07:58.877Z,2.00
2022-09-30T01:10:26.620Z,2.08
2022-09-30T01:12:54.820Z,2.20
2022-09-30T01:15:30.234Z,2.33
2022-09-30T01:18:05.283Z,2.20
2022-09-30T01:21:16.626Z,2.05
2022-09-30T01:24:17.215Z,2.00
2022-09-30T01:27:23.716Z,2.00
2022-09-30T01:30:11.433Z,2.00
2022-09-30T01:32:54.464Z,2.00
2022-09-30T01:35:31.644Z,2.35
2022-09-30T01:38:05.038Z,2.42
2022-09-30T01:40:45.407Z,2.00
2022-09-30T01:43:22.931Z,1.90
2022-09-30T01:46:00.135Z,1.97
2022-09-30T01:48:37.265Z,1.95
2022-09-30T01:51:08.527Z,2.40
2022-09-30T01:53:43.035Z,2.30
2022-09-30T01:56:17.181Z,2.08
2022-09-30T01:58:51.627Z,2.27
2022-09-30T02:01:31.602Z,2.40
2022-09-30T02:04:06.788Z,2.30
2022-09-30T02:06:39.525Z,2.75
2022-09-30T02:09:12.196Z,2.30
2022-09-30T02:11:42.396Z,2.10
2022-09-30T02:14:15.618Z,2.25
2022-09-30T02:16:47.442Z,2.40
2022-09-30T02:19:20.471Z,2.10
2022-09-30T02:21:53.879Z,2.70
2022-09-30T02:24:25.197Z,2.00
2022-09-30T02:26:54.801Z,1.92
2022-09-30T02:29:26.162Z,2.30
2022-09-30T02:31:59.289Z,2.30
2022-09-30T02:34:32.430Z,2.00
2022-09-30T02:37:05.632Z,2.17
2022-09-30T02:39:42.123Z,2.15
2022-09-30T02:42:15.059Z,2.05
2022-09-30T02:44:42.856Z,2.03
2022-09-30T02:47:16.750Z,1.95
2022-09-30T02:49:49.613Z,2.23
2022-09-30T02:52:26.815Z,1.95
2022-09-30T02:55:06.295Z,2.05
2022-09-30T02:57:41.118Z,2.05
2022-09-30T03:00:12.898Z,1.90
2022-09-30T03:02:41.567Z,1.90
2022-09-30T03:05:12.624Z,2.08
2022-09-30T03:07:41.769Z,1.95
2022-09-30T03:10:14.795Z,2.00
2022-09-30T03:12:57.334Z,2.22
2022-09-30T03:15:36.056Z,2.40
2022-09-30T03:18:27.559Z,2.20
2022-09-30T03:21:09.713Z,2.20
2022-09-30T03:24:01.648Z,2.30
2022-09-30T03:26:37.975Z,2.20
2022-09-30T03:29:15.051Z,2.40
2022-09-30T03:31:55.162Z,2.20
2022-09-30T03:34:33.043Z,2.22
2022-09-30T03:37:09.954Z,2.10
2022-09-30T03:39:52.653Z,2.30
2022-09-30T03:42:26.978Z,2.20
2022-09-30T03:45:02.521Z,2.30
2022-09-30T03:47:33.128Z,2.42
2022-09-30T03:50:03.876Z,2.60
2022-09-30T03:52:34.630Z,2.50
2022-09-30T03:55:06.216Z,2.70
2022-09-30T03:57:34.110Z,2.15
2022-09-30T04:00:02.336Z,2.53
2022-09-30T04:02:33.077Z,2.60
2022-09-30T04:05:00.816Z,2.88
2022-09-30T04:07:28.488Z,2.50
2022-09-30T04:09:57.640Z,2.58
2022-09-30T04:12:25.443Z,2.60
2022-09-30T04:14:53.487Z,2.50
2022-09-30T04:17:21.437Z,2.33
2022-09-30T04:19:49.141Z,2.07
2022-09-30T04:22:16.975Z,2.50
2022-09-30T04:24:44.896Z,2.67
2022-09-30T04:27:14.115Z,2.63
2022-09-30T04:29:41.857Z,2.80
2022-09-30T04:32:09.665Z,3.23
2022-09-30T04:34:37.652Z,2.97
2022-09-30T04:37:10.087Z,3.13
2022-09-30T04:39:38.812Z,3.47
2022-09-30T04:42:07.089Z,3.40
2022-09-30T04:44:36.907Z,3.30
2022-09-30T04:47:04.753Z,3.70
2022-09-30T04:49:32.692Z,4.15
2022-09-30T04:52:00.639Z,4.10
2022-09-30T04:54:28.425Z,3.80
2022-09-30T04:56:56.187Z,4.03
2022-09-30T04:59:24.250Z,4.28
2022-09-30T05:01:54.296Z,4.07
2022-09-30T05:04:22.174Z,4.20
2022-09-30T05:06:50.687Z,4.20
2022-09-30T05:09:18.572Z,4.23
2022-09-30T05:11:46.418Z,4.53
2022-09-30T05:14:14.181Z,4.20
2022-09-30T05:16:42.082Z,4.10
2022-09-30T05:19:11.416Z,4.20
2022-09-30T05:21:39.117Z,4.30
2022-09-30T05:24:06.773Z,4.00
2022-09-30T05:26:34.479Z,4.07
2022-09-30T05:29:02.408Z,4.43
2022-09-30T05:31:30.287Z,4.30
2022-09-30T05:33:58.464Z,3.90
2022-09-30T05:36:27.864Z,3.85
2022-09-30T05:38:55.752Z,3.90
2022-09-30T05:41:24.393Z,3.65
2022-09-30T05:43:52.484Z,3.75
2022-09-30T05:46:21.537Z,3.97
2022-09-30T05:48:49.427Z,3.78
2022-09-30T05:51:17.163Z,3.97
2022-09-30T05:53:46.263Z,3.65
2022-09-30T05:56:14.112Z,3.50
2022-09-30T05:58:42.139Z,3.83
2022-09-30T06:01:14.117Z,3.72
2022-09-30T06:03:42.983Z,3.70
2022-09-30T06:06:11.305Z,3.53
2022-09-30T06:08:39.164Z,3.80
2022-09-30T06:11:12.870Z,3.37
2022-09-30T06:13:41.595Z,3.65
2022-09-30T06:16:10.454Z,3.80
2022-09-30T06:18:40.278Z,3.33
2022-09-30T06:21:09.553Z,3.72
2022-09-30T06:23:37.324Z,3.33
2022-09-30T06:26:08.330Z,3.72
2022-09-30T06:28:37.426Z,4.00
2022-09-30T06:31:06.602Z,3.92
2022-09-30T06:33:34.510Z,3.92
2022-09-30T06:36:04.573Z,3.80
2022-09-30T06:38:32.741Z,4.22
2022-09-30T06:41:00.697Z,4.30
2022-09-30T06:43:28.546Z,4.15
2022-09-30T06:46:11.053Z,4.20
2022-09-30T06:48:42.895Z,4.40
2022-09-30T06:51:11.087Z,4.32
2022-09-30T06:53:39.385Z,4.30
2022-09-30T06:56:08.146Z,4.47
2022-09-30T06:58:35.913Z,5.25
2022-09-30T07:01:06.895Z,5.57
2022-09-30T07:03:36.547Z,6.00
2022-09-30T07:06:06.970Z,4.50
2022-09-30T07:08:37.079Z,5.20
2022-09-30T07:11:11.726Z,5.53
2022-09-30T07:13:40.053Z,4.77
2022-09-30T07:16:09.431Z,4.65
2022-09-30T07:18:37.281Z,4.85
2022-09-30T07:21:05.805Z,5.10
2022-09-30T07:23:33.581Z,5.40
2022-09-30T07:26:04.672Z,5.03
2022-09-30T07:28:34.885Z,4.57
2022-09-30T07:31:31.366Z,4.57
2022-09-30T07:33:57.392Z,4.60
2022-09-30T07:36:32.559Z,4.63
2022-09-30T07:39:06.233Z,5.03
2022-09-30T07:41:38.767Z,4.70
2022-09-30T07:44:08.756Z,4.90
2022-09-30T07:46:39.129Z,4.35
2022-09-30T07:49:13.420Z,4.35
2022-09-30T07:51:44.081Z,4.37
2022-09-30T07:54:18.043Z,4.03
2022-09-30T07:59:37.276Z,3.97
2022-09-30T08:02:05.224Z,3.72
2022-09-30T08:04:35.047Z,3.33
2022-09-30T08:07:05.370Z,3.00
2022-09-30T08:09:33.153Z,3.22
2022-09-30T08:12:03.848Z,3.10
2022-09-30T08:14:31.774Z,2.90
2022-09-30T08:17:00.445Z,2.40
2022-09-30T08:19:30.006Z,2.25
2022-09-30T08:21:59.492Z,2.47
2022-09-30T08:24:27.756Z,2.13
2022-09-30T08:26:56.341Z,2.60
2022-09-30T08:29:49.922Z,2.50
2022-09-30T08:32:12.045Z,2.15
2022-09-30T08:34:40.090Z,2.08
2022-09-30T08:37:10.126Z,2.05
2022-09-30T08:39:38.121Z,1.90
2022-09-30T08:42:42.415Z,1.90
2022-09-30T08:45:23.216Z,1.60
2022-09-30T08:48:00.545Z,1.30
2022-09-30T08:50:36.393Z,1.60
2022-09-30T08:53:10.421Z,1.40
2022-09-30T08:55:41.574Z,1.30
2022-09-30T08:58:22.626Z,0.98
2022-09-30T09:00:53.782Z,0.90
2022-09-30T09:03:23.906Z,0.90
2022-09-30T09:05:57.535Z,0.80
2022-09-30T09:08:33.340Z,0.80
2022-09-30T09:11:08.973Z,0.70
2022-09-30T09:13:46.240Z,0.80
2022-09-30T09:16:23.675Z,0.60
2022-09-30T09:19:07.391Z,1.13
2022-09-30T09:21:50.066Z,0.60
2022-09-30T09:24:21.813Z,0.63
2022-09-30T09:26:52.199Z,0.80
2022-09-30T09:29:36.447Z,0.50
2022-09-30T09:32:07.749Z,0.68
2022-09-30T09:34:38.305Z,0.50
2022-09-30T09:37:21.259Z,0.40
2022-09-30T09:40:04.688Z,0.60
2022-09-30T09:42:42.579Z,0.40
2022-09-30T09:45:18.468Z,0.70
2022-09-30T09:47:51.976Z,0.43
2022-09-30T09:50:25.037Z,0.50
2022-09-30T09:53:04.405Z,0.50
2022-09-30T09:55:33.390Z,0.70
2022-09-30T09:58:10.366Z,0.40
2022-09-30T10:00:56.046Z,0.40
2022-09-30T10:03:26.483Z,0.40
2022-09-30T10:06:02.629Z,0.50
2022-09-30T10:08:31.617Z,0.60
2022-09-30T10:11:03.708Z,0.60
2022-09-30T10:13:33.835Z,0.60
2022-09-30T10:16:02.916Z,0.52
2022-09-30T10:18:34.384Z,0.60
2022-09-30T10:21:06.519Z,0.60
2022-09-30T10:23:37.431Z,0.80
2022-09-30T10:26:18.899Z,0.50
2022-09-30T10:28:49.234Z,0.68
2022-09-30T10:31:21.958Z,0.57
2022-09-30T10:33:55.250Z,0.50
2022-09-30T10:36:25.729Z,0.70
2022-09-30T10:39:03.924Z,0.80
2022-09-30T10:41:38.254Z,0.70
2022-09-30T10:44:08.669Z,0.60
2022-09-30T10:46:38.539Z,1.15
2022-09-30T10:49:11.800Z,0.80
2022-09-30T10:51:40.055Z,0.70
2022-09-30T10:54:08.080Z,0.90
2022-09-30T10:56:41.369Z,1.00
2022-09-30T10:59:19.921Z,1.38
2022-09-30T11:01:53.862Z,1.25
2022-09-30T11:04:30.339Z,1.40
2022-09-30T11:07:05.057Z,1.80
2022-09-30T11:09:38.742Z,1.70
2022-09-30T11:12:15.860Z,2.13
2022-09-30T11:14:50.793Z,2.00
2022-09-30T11:17:31.615Z,1.90
2022-09-30T11:20:09.339Z,2.53
2022-09-30T11:22:44.453Z,1.73
2022-09-30T11:25:15.921Z,1.58
2022-09-30T11:27:57.115Z,1.58
2022-09-30T11:30:32.041Z,2.23
2022-09-30T11:33:13.747Z,2.50
2022-09-30T11:35:52.158Z,1.88
2022-09-30T11:38:49.442Z,1.80
2022-09-30T11:41:23.168Z,1.65
2022-09-30T11:44:00.938Z,1.60
2022-09-30T11:46:47.889Z,1.60
2022-09-30T11:49:35.078Z,1.60
2022-09-30T11:52:14.103Z,1.60
2022-09-30T11:55:03.401Z,1.20
2022-09-30T11:57:36.291Z,1.17
2022-09-30T12:00:10.904Z,1.08
2022-09-30T12:02:45.963Z,1.13
2022-09-30T12:05:18.088Z,0.90
2022-09-30T12:07:48.818Z,0.90
2022-09-30T12:10:22.300Z,1.00
2022-09-30T12:12:55.552Z,0.80
2022-09-30T12:15:26.868Z,0.85
2022-09-30T12:17:59.087Z,0.50
2022-09-30T12:20:30.343Z,0.60
2022-09-30T12:23:06.841Z,0.60
2022-09-30T12:25:40.770Z,0.50
2022-09-30T12:28:33.467Z,0.50
2022-09-30T12:31:15.015Z,0.50
2022-09-30T12:34:00.104Z,0.60
2022-09-30T12:36:42.504Z,0.60
2022-09-30T12:39:42.693Z,0.60
2022-09-30T12:42:33.198Z,0.60
2022-09-30T12:45:19.728Z,0.75
2022-09-30T12:47:51.493Z,0.90
2022-09-30T12:50:22.274Z,1.13
2022-09-30T12:52:50.967Z,1.10
2022-09-30T12:55:25.562Z,1.00
2022-09-30T12:57:54.576Z,1.10
2022-09-30T13:00:24.109Z,1.05
2022-09-30T13:02:59.359Z,1.67
2022-09-30T13:05:56.188Z,0.63
2022-09-30T13:08:43.030Z,0.70
2022-09-30T13:11:33.404Z,0.63
2022-09-30T13:14:14.413Z,0.88
2022-09-30T13:17:19.567Z,0.73
2022-09-30T13:19:51.311Z,0.73
2022-09-30T13:22:55.972Z,0.60
2022-09-30T13:25:23.841Z,0.73
2022-09-30T13:27:55.318Z,0.90
2022-09-30T13:30:37.828Z,0.80
2022-09-30T13:33:22.414Z,0.80
2022-09-30T13:35:52.622Z,0.90
2022-09-30T13:38:25.351Z,1.08
2022-09-30T13:41:04.153Z,0.88
2022-09-30T13:43:35.961Z,0.87
2022-09-30T13:46:12.239Z,1.42
2022-09-30T13:48:44.508Z,1.40
2022-09-30T13:51:17.229Z,1.30
2022-09-30T13:53:49.153Z,1.70
2022-09-30T13:56:21.420Z,1.47
2022-09-30T13:59:09.768Z,1.60
2022-09-30T14:02:00.705Z,1.60
2022-09-30T14:04:45.878Z,1.77
2022-09-30T14:07:26.104Z,1.73
2022-09-30T14:10:28.388Z,2.63
2022-09-30T14:13:14.569Z,2.10
2022-09-30T14:15:59.665Z,2.05
2022-09-30T14:18:47.667Z,2.17
2022-09-30T14:21:30.146Z,2.13
2022-09-30T14:24:01.227Z,1.90
2022-09-30T14:26:54.181Z,2.20
2022-09-30T14:29:32.581Z,2.20
2022-09-30T14:32:01.112Z,1.80
2022-09-30T14:34:31.530Z,1.67
2022-09-30T14:36:59.627Z,2.00
2022-09-30T14:39:31.208Z,1.80
2022-09-30T14:42:01.983Z,1.40
2022-09-30T14:44:33.779Z,1.45
2022-09-30T14:47:02.595Z,1.38
2022-09-30T14:49:34.765Z,1.10
2022-09-30T14:52:03.809Z,1.20
2022-09-30T14:54:34.198Z,0.98
2022-09-30T14:57:04.492Z,1.17
2022-09-30T14:59:34.598Z,1.08
2022-09-30T15:02:05.169Z,1.10
2022-09-30T15:04:36.238Z,0.88
2022-09-30T15:07:07.149Z,1.00
2022-09-30T15:09:38.330Z,1.35
2022-09-30T15:12:07.812Z,1.17
2022-09-30T15:14:46.555Z,0.90
2022-09-30T15:17:19.604Z,1.00
2022-09-30T15:19:47.394Z,0.98
2022-09-30T15:22:15.868Z,1.40
2022-09-30T15:24:45.274Z,0.90
2022-09-30T15:27:20.796Z,1.30
2022-09-30T15:29:56.070Z,1.30
2022-09-30T15:32:27.427Z,1.30
2022-09-30T15:34:58.608Z,1.17
2022-09-30T15:37:33.507Z,1.25
2022-09-30T15:40:21.326Z,1.40
2022-09-30T15:43:02.806Z,1.80
2022-09-30T15:45:35.352Z,1.75
2022-09-30T15:48:06.985Z,1.70
2022-09-30T15:50:40.432Z,1.50
2022-09-30T15:53:18.237Z,2.10
2022-09-30T15:55:51.832Z,1.85
2022-09-30T15:58:33.804Z,2.15
2022-09-30T16:01:15.766Z,1.60
2022-09-30T16:03:53.141Z,1.55
2022-09-30T16:06:25.128Z,2.10
2022-09-30T16:09:01.313Z,1.88
2022-09-30T16:11:34.832Z,1.77
2022-09-30T16:14:06.023Z,1.60
2022-09-30T16:16:36.568Z,1.63
2022-09-30T16:19:06.312Z,1.70
2022-09-30T16:21:44.181Z,2.08
2022-09-30T16:24:47.516Z,1.75
2022-09-30T16:27:26.878Z,1.67
2022-09-30T16:29:54.559Z,1.83
2022-09-30T16:32:22.596Z,2.10
2022-09-30T16:34:50.766Z,2.17
2022-09-30T16:37:20.663Z,2.42
2022-09-30T16:39:48.605Z,2.45
2022-09-30T16:42:17.350Z,2.83
2022-09-30T16:44:46.480Z,2.80
2022-09-30T16:47:16.574Z,3.03
2022-09-30T16:49:46.574Z,3.00
2022-09-30T16:52:15.412Z,2.92
2022-09-30T16:54:43.797Z,2.83
2022-09-30T16:57:15.176Z,3.40
2022-09-30T16:59:43.150Z,3.47
2022-09-30T17:02:16.608Z,3.30
2022-09-30T17:04:45.367Z,3.50
2022-09-30T17:07:14.960Z,3.90
2022-09-30T17:09:44.112Z,4.00
2022-09-30T17:12:12.884Z,4.22
2022-09-30T17:14:43.316Z,4.28
2022-09-30T17:17:13.795Z,4.47
2022-09-30T17:19:43.154Z,4.15
2022-09-30T17:22:10.934Z,4.30
2022-09-30T17:24:38.755Z,4.07
2022-09-30T17:27:07.385Z,4.63
2022-09-30T17:29:41.857Z,4.25
2022-09-30T17:32:10.378Z,4.18
2022-09-30T17:34:41.218Z,4.13
2022-09-30T17:37:10.955Z,4.35
2022-09-30T17:39:38.649Z,4.20
2022-09-30T17:42:23.826Z,4.25
2022-09-30T17:44:52.420Z,3.90
2022-09-30T17:47:21.297Z,4.27
2022-09-30T17:49:49.025Z,4.45
2022-09-30T17:52:18.148Z,4.00
2022-09-30T17:54:51.124Z,4.50
2022-09-30T17:57:20.071Z,4.03
2022-09-30T17:59:47.815Z,4.07
2022-09-30T18:02:17.683Z,3.90
2022-09-30T18:04:46.340Z,3.55
2022-09-30T18:07:14.088Z,4.00
2022-09-30T18:09:43.171Z,3.80
2022-09-30T18:12:12.214Z,3.50
2022-09-30T18:14:39.869Z,3.45
2022-09-30T18:17:07.561Z,3.60
2022-09-30T18:19:36.199Z,3.53
2022-09-30T18:22:04.460Z,3.78
2022-09-30T18:24:49.767Z,3.73
2022-09-30T18:27:21.317Z,4.82
2022-09-30T18:29:49.103Z,3.70
2022-09-30T18:32:17.555Z,4.25
2022-09-30T18:34:45.336Z,3.75
2022-09-30T18:37:13.077Z,3.47
2022-09-30T18:39:41.011Z,3.78
2022-09-30T18:42:08.671Z,3.60
2022-09-30T18:44:38.079Z,3.70
2022-09-30T18:47:06.050Z,4.47
2022-09-30T18:49:33.880Z,4.30
2022-09-30T18:52:03.139Z,4.22
2022-09-30T18:54:31.082Z,3.97
2022-09-30T18:56:59.663Z,3.70
2022-09-30T18:59:27.561Z,3.78
2022-09-30T19:01:58.498Z,3.23
2022-09-30T19:04:26.277Z,4.05
2022-09-30T19:06:53.983Z,3.30
2022-09-30T19:09:21.760Z,3.70
2022-09-30T19:11:51.387Z,3.28
2022-09-30T19:14:20.133Z,3.80
2022-09-30T19:16:47.822Z,3.60
2022-09-30T19:19:18.383Z,3.08
2022-09-30T19:21:46.232Z,3.08
2022-09-30T19:24:14.051Z,3.30
2022-09-30T19:26:41.816Z,2.80
2022-09-30T19:29:11.501Z,2.92
2022-09-30T19:31:39.503Z,3.30
2022-09-30T19:34:09.098Z,3.38
2022-09-30T19:36:49.782Z,3.30
2022-09-30T19:39:20.085Z,3.17
2022-09-30T19:41:47.868Z,3.40
2022-09-30T19:44:18.878Z,3.30
2022-09-30T19:46:47.054Z,2.83
2022-09-30T19:49:15.335Z,3.00
2022-09-30T19:51:44.510Z,2.80
2022-09-30T19:54:12.287Z,2.80
2022-09-30T19:56:40.269Z,2.63
2022-09-30T19:59:08.100Z,2.72
2022-09-30T20:01:36.683Z,3.10
2022-09-30T20:04:05.774Z,2.97
2022-09-30T20:06:34.744Z,2.88
2022-09-30T20:09:06.195Z,2.28
2022-09-30T20:11:36.715Z,3.10
2022-09-30T20:14:24.048Z,2.70
2022-09-30T20:16:51.853Z,2.60
2022-09-30T20:19:22.312Z,2.88
2022-09-30T20:21:51.070Z,3.22
2022-09-30T20:24:20.846Z,3.53
2022-09-30T20:26:50.126Z,3.90
2022-09-30T20:29:20.394Z,2.80
2022-09-30T20:31:49.138Z,2.75
2022-09-30T20:34:18.887Z,2.60
2022-09-30T20:36:47.583Z,2.72
2022-09-30T20:39:15.289Z,3.33
2022-09-30T20:41:46.080Z,2.67
2022-09-30T20:44:14.103Z,2.30
2022-09-30T20:46:43.175Z,2.40
2022-09-30T20:49:10.865Z,2.45
2022-09-30T20:51:38.986Z,2.42
2022-09-30T20:54:06.769Z,2.63
2022-09-30T20:56:50.007Z,2.42
2022-09-30T20:59:24.151Z,2.08
2022-09-30T21:01:52.134Z,2.60
2022-09-30T21:04:19.956Z,2.25
2022-09-30T21:06:48.620Z,1.80
2022-09-30T21:09:17.026Z,2.03
2022-09-30T21:11:44.901Z,2.40
2022-09-30T21:14:12.561Z,2.10
2022-09-30T21:16:42.417Z,2.38
2022-09-30T21:19:10.333Z,2.13
2022-09-30T21:21:38.033Z,2.30
2022-09-30T21:24:05.985Z,2.35
2022-09-30T21:26:33.716Z,2.10
2022-09-30T21:29:02.082Z,2.20
2022-09-30T21:31:30.285Z,2.43
2022-09-30T21:34:00.666Z,2.30
2022-09-30T21:36:29.580Z,2.47
2022-09-30T21:39:02.120Z,2.10
2022-09-30T21:41:30.016Z,2.60
2022-09-30T21:43:58.420Z,2.50
2022-09-30T21:46:27.428Z,2.60
2022-09-30T21:49:06.069Z,2.80
2022-09-30T21:51:35.904Z,2.47
2022-09-30T21:54:03.848Z,3.08
2022-09-30T21:56:31.828Z,3.10
2022-09-30T21:58:59.714Z,2.80
2022-09-30T22:01:27.555Z,2.85
2022-09-30T22:03:55.324Z,3.22
2022-09-30T22:06:25.424Z,2.90
2022-09-30T22:08:53.141Z,2.90
2022-09-30T22:11:24.496Z,2.70
2022-09-30T22:13:55.537Z,3.03
2022-09-30T22:16:26.969Z,2.47
2022-09-30T22:18:55.567Z,2.20
2022-09-30T22:21:25.768Z,2.40
2022-09-30T22:23:53.604Z,2.88
2022-09-30T22:26:23.499Z,2.70
2022-09-30T22:28:55.116Z,2.22
2022-09-30T22:31:24.698Z,2.50
2022-09-30T22:34:11.554Z,2.60
2022-09-30T22:36:58.881Z,2.83
2022-09-30T22:39:27.177Z,2.80
2022-09-30T22:41:56.466Z,2.50
2022-09-30T22:44:25.804Z,2.80
2022-09-30T22:46:54.614Z,2.80
2022-09-30T22:49:24.345Z,2.38
2022-09-30T22:51:53.994Z,2.97
2022-09-30T22:54:22.246Z,2.92
2022-09-30T22:56:51.158Z,2.92
2022-09-30T22:59:20.344Z,3.23
2022-09-30T23:01:49.231Z,3.00
2022-09-30T23:04:17.733Z,3.28
2022-09-30T23:06:48.261Z,3.22
2022-09-30T23:09:17.924Z,3.53
2022-09-30T23:11:46.265Z,4.10
2022-09-30T23:14:14.670Z,3.97
2022-09-30T23:16:42.838Z,4.28
2022-09-30T23:19:10.924Z,3.92
2022-09-30T23:21:38.553Z,4.32
2022-09-30T23:24:06.811Z,4.20
2022-09-30T23:26:37.057Z,4.32
2022-09-30T23:29:06.487Z,3.63
2022-09-30T23:31:35.073Z,4.18
2022-09-30T23:34:04.450Z,3.92
2022-09-30T23:36:34.021Z,3.73
2022-09-30T23:39:03.260Z,3.90
2022-09-30T23:41:31.392Z,3.85
2022-09-30T23:44:01.064Z,4.00
2022-09-30T23:46:28.872Z,4.45
2022-09-30T23:48:56.584Z,4.63
2022-09-30T23:51:24.681Z,4.20
2022-09-30T23:53:52.412Z,4.45
2022-09-30T23:56:20.259Z,4.20
2022-09-30T23:58:48.560Z,4.22
